createdAt,value
2023-03-22T00:00:44.154Z,6.38
2023-03-22T00:02:48.143Z,6.35
2023-03-22T00:04:50.756Z,8.05
2023-03-22T00:06:53.432Z,5.13
2023-03-22T00:08:56.412Z,5.07
2023-03-22T00:10:58.968Z,6.20
2023-03-22T00:13:02.019Z,6.35
2023-03-22T00:15:05.033Z,3.97
2023-03-22T00:17:07.629Z,5.22
2023-03-22T00:19:11.539Z,5.60
2023-03-22T00:21:15.760Z,8.35
2023-03-22T00:23:18.527Z,5.78
2023-03-22T00:25:21.081Z,4.57
2023-03-22T00:27:23.654Z,4.97
2023-03-22T00:29:26.225Z,5.53
2023-03-22T00:31:28.865Z,5.07
2023-03-22T00:33:33.420Z,6.10
2023-03-22T00:35:37.397Z,5.97
2023-03-22T00:37:40.236Z,5.28
2023-03-22T00:39:42.969Z,6.00
2023-03-22T00:41:45.568Z,3.97
2023-03-22T00:43:48.836Z,6.82
2023-03-22T00:45:51.423Z,5.43
2023-03-22T00:47:54.081Z,5.07
2023-03-22T00:49:56.753Z,6.70
2023-03-22T00:52:00.692Z,7.00
2023-03-22T00:54:06.081Z,6.28
2023-03-22T00:56:09.638Z,6.80
2023-03-22T00:58:15.280Z,5.15
2023-03-22T01:00:18.629Z,6.30
2023-03-22T01:02:21.219Z,8.68
2023-03-22T01:04:28.846Z,6.97
2023-03-22T01:06:31.751Z,5.88
2023-03-22T01:08:39.063Z,5.03
2023-03-22T01:10:43.337Z,6.10
2023-03-22T01:12:46.393Z,5.47
2023-03-22T01:14:48.992Z,5.53
2023-03-22T01:16:51.717Z,4.13
2023-03-22T01:18:54.378Z,7.85
2023-03-22T01:20:56.980Z,7.60
2023-03-22T01:22:59.722Z,4.78
2023-03-22T01:25:03.865Z,9.90
2023-03-22T01:27:07.151Z,6.47
2023-03-22T01:29:10.192Z,5.97
2023-03-22T01:31:12.867Z,7.03
2023-03-22T01:33:15.652Z,4.47
2023-03-22T01:35:18.344Z,6.50
2023-03-22T01:37:21.955Z,7.10
2023-03-22T01:39:24.568Z,6.20
2023-03-22T01:41:28.555Z,6.07
2023-03-22T01:43:31.160Z,4.60
2023-03-22T01:45:45.788Z,6.10
2023-03-22T01:47:54.999Z,10.98
2023-03-22T01:50:00.772Z,6.80
2023-03-22T01:52:10.547Z,5.03
2023-03-22T01:54:19.258Z,5.82
2023-03-22T01:56:24.611Z,6.05
2023-03-22T01:58:28.686Z,6.20
2023-03-22T02:00:31.938Z,5.95
2023-03-22T02:02:34.858Z,5.28
2023-03-22T02:04:39.353Z,6.97
2023-03-22T02:06:42.739Z,7.15
2023-03-22T02:08:45.434Z,8.18
2023-03-22T02:10:48.060Z,9.70
2023-03-22T02:13:05.293Z,5.88
2023-03-22T02:15:13.423Z,4.15
2023-03-22T02:17:27.606Z,5.32
2023-03-22T02:20:05.683Z,12.07
2023-03-22T02:22:25.884Z,6.55
2023-03-22T02:24:56.210Z,8.45
2023-03-22T02:27:21.850Z,6.55
2023-03-22T02:29:33.010Z,6.78
2023-03-22T02:31:59.312Z,7.75
2023-03-22T02:34:27.742Z,5.63
2023-03-22T02:36:42.829Z,5.75
2023-03-22T02:39:19.832Z,9.32
2023-03-22T02:41:31.967Z,11.23
2023-03-22T02:43:39.102Z,6.10
2023-03-22T02:45:47.971Z,8.15
2023-03-22T02:47:57.284Z,7.03
2023-03-22T02:50:07.044Z,7.30
2023-03-22T02:52:17.269Z,6.45
2023-03-22T02:54:26.289Z,7.90
2023-03-22T02:56:33.598Z,7.25
2023-03-22T02:58:40.202Z,9.57
2023-03-22T03:00:45.122Z,5.10
2023-03-22T03:02:51.771Z,4.97
2023-03-22T03:04:56.720Z,6.75
2023-03-22T03:07:03.828Z,4.32
2023-03-22T03:09:07.254Z,6.35
2023-03-22T03:11:11.697Z,4.65
2023-03-22T03:13:16.247Z,9.00
2023-03-22T03:15:21.176Z,8.57
2023-03-22T03:17:39.439Z,9.82
2023-03-22T03:19:51.243Z,5.55
2023-03-22T03:24:14.335Z,12.38
2023-03-22T03:26:25.314Z,11.40
2023-03-22T03:28:38.353Z,13.00
2023-03-22T03:30:48.339Z,12.38
2023-03-22T03:32:54.507Z,9.50
2023-03-22T03:35:03.478Z,8.15
2023-03-22T03:37:10.468Z,8.63
2023-03-22T03:39:15.993Z,6.97
2023-03-22T03:41:23.610Z,8.07
2023-03-22T03:43:26.865Z,7.90
2023-03-22T03:45:30.601Z,8.90
2023-03-22T03:47:33.452Z,8.43
2023-03-22T03:49:36.902Z,9.20
2023-03-22T03:51:48.637Z,5.90
2023-03-22T03:53:51.225Z,8.75
2023-03-22T03:55:53.797Z,5.25
2023-03-22T03:57:57.685Z,8.00
2023-03-22T04:00:00.348Z,7.13
2023-03-22T04:02:02.959Z,8.20
2023-03-22T04:04:05.630Z,4.78
2023-03-22T04:06:09.823Z,6.45
2023-03-22T04:08:12.392Z,9.52
2023-03-22T04:10:16.966Z,5.38
2023-03-22T04:12:19.548Z,6.40
2023-03-22T04:14:24.157Z,4.28
2023-03-22T04:16:26.784Z,7.07
2023-03-22T04:18:30.180Z,6.22
2023-03-22T04:20:32.764Z,4.55
2023-03-22T04:22:38.357Z,9.40
2023-03-22T04:24:41.189Z,6.45
2023-03-22T04:26:43.763Z,9.77
2023-03-22T04:28:46.346Z,6.05
2023-03-22T04:30:51.914Z,5.93
2023-03-22T04:32:54.584Z,7.18
2023-03-22T04:34:57.163Z,8.50
2023-03-22T04:37:02.444Z,6.65
2023-03-22T04:39:06.914Z,8.82
2023-03-22T04:41:09.567Z,7.63
2023-03-22T04:43:13.723Z,4.55
2023-03-22T04:45:16.588Z,5.40
2023-03-22T04:47:20.588Z,9.90
2023-03-22T04:49:23.376Z,5.25
2023-03-22T04:51:27.079Z,6.43
2023-03-22T04:53:29.820Z,7.05
2023-03-22T04:55:34.137Z,11.70
2023-03-22T04:57:36.899Z,12.20
2023-03-22T04:59:39.480Z,9.80
2023-03-22T05:01:42.645Z,6.57
2023-03-22T05:03:47.475Z,6.90
2023-03-22T05:05:54.666Z,7.43
2023-03-22T05:07:57.302Z,5.60
2023-03-22T05:09:59.906Z,9.63
2023-03-22T05:12:02.478Z,5.55
2023-03-22T05:14:05.471Z,8.65
2023-03-22T05:16:09.851Z,5.10
2023-03-22T05:18:14.341Z,5.45
2023-03-22T05:20:18.300Z,5.15
2023-03-22T05:22:22.453Z,6.35
2023-03-22T05:24:25.260Z,5.63
2023-03-22T05:26:28.438Z,6.95
2023-03-22T05:28:31.876Z,7.05
2023-03-22T05:30:34.731Z,6.57
2023-03-22T05:32:37.553Z,9.35
2023-03-22T05:34:42.803Z,9.95
2023-03-22T05:36:51.472Z,7.22
2023-03-22T05:38:54.060Z,6.75
2023-03-22T05:40:56.617Z,7.47
2023-03-22T05:42:59.229Z,6.13
2023-03-22T05:45:01.918Z,8.02
2023-03-22T05:47:06.608Z,8.43
2023-03-22T05:49:11.131Z,4.22
2023-03-22T05:51:17.737Z,7.35
2023-03-22T05:53:21.700Z,6.68
2023-03-22T05:55:24.591Z,5.28
2023-03-22T05:57:29.912Z,8.50
2023-03-22T05:59:32.610Z,10.90
2023-03-22T06:01:35.328Z,7.47
2023-03-22T06:03:38.397Z,7.30
2023-03-22T06:05:41.360Z,8.13
2023-03-22T06:07:44.330Z,13.35
2023-03-22T06:09:49.475Z,6.85
2023-03-22T06:11:52.187Z,9.82
2023-03-22T06:13:54.729Z,7.22
2023-03-22T06:16:00.395Z,9.55
2023-03-22T06:18:03.183Z,8.25
2023-03-22T06:20:09.871Z,9.07
2023-03-22T06:22:12.594Z,11.20
2023-03-22T06:24:15.299Z,10.82
2023-03-22T06:26:19.203Z,6.63
2023-03-22T06:28:21.776Z,7.43
2023-03-22T06:30:24.719Z,11.45
2023-03-22T06:32:27.618Z,7.93
2023-03-22T06:34:30.309Z,11.05
2023-03-22T06:36:33.119Z,8.88
2023-03-22T06:38:35.720Z,10.10
2023-03-22T06:40:38.633Z,9.65
2023-03-22T06:42:42.855Z,14.43
2023-03-22T06:44:45.456Z,8.52
2023-03-22T06:46:48.531Z,8.45
2023-03-22T06:48:51.112Z,11.50
2023-03-22T06:50:53.658Z,8.57
2023-03-22T06:52:56.397Z,7.78
2023-03-22T06:54:58.963Z,9.95
2023-03-22T06:57:01.571Z,7.00
2023-03-22T06:59:05.530Z,11.73
2023-03-22T07:01:08.215Z,8.07
2023-03-22T07:03:10.889Z,5.53
2023-03-22T07:05:13.496Z,7.82
2023-03-22T07:07:16.284Z,7.63
2023-03-22T07:09:19.062Z,6.15
2023-03-22T07:11:22.861Z,6.20
2023-03-22T07:13:25.618Z,6.95
2023-03-22T07:15:29.505Z,6.75
2023-03-22T07:17:32.131Z,6.78
2023-03-22T07:19:34.800Z,6.60
2023-03-22T07:21:37.394Z,7.60
2023-03-22T07:23:39.921Z,8.32
2023-03-22T07:25:42.495Z,7.78
2023-03-22T07:27:45.665Z,6.30
2023-03-22T07:29:48.331Z,9.18
2023-03-22T07:31:52.289Z,10.45
2023-03-22T07:33:54.892Z,9.93
2023-03-22T07:35:57.557Z,8.25
2023-03-22T07:38:00.870Z,6.28
2023-03-22T07:40:05.299Z,6.25
2023-03-22T07:42:07.957Z,8.63
2023-03-22T07:44:17.635Z,6.60
2023-03-22T07:46:20.705Z,5.90
2023-03-22T07:48:25.280Z,8.93
2023-03-22T07:50:27.865Z,6.75
2023-03-22T07:52:30.548Z,4.63
2023-03-22T07:54:34.491Z,7.07
2023-03-22T07:56:37.700Z,5.90
2023-03-22T07:58:40.340Z,5.28
2023-03-22T08:00:42.933Z,6.28
2023-03-22T08:02:46.207Z,7.85
2023-03-22T08:04:53.161Z,4.60
2023-03-22T08:06:58.697Z,5.32
2023-03-22T08:09:01.297Z,5.55
2023-03-22T08:11:04.187Z,4.82
2023-03-22T08:13:06.811Z,4.93
2023-03-22T08:15:10.869Z,3.97
2023-03-22T08:17:13.688Z,4.80
2023-03-22T08:19:16.294Z,4.00
2023-03-22T08:21:20.306Z,6.22
2023-03-22T08:23:38.515Z,5.15
2023-03-22T08:25:44.171Z,5.65
2023-03-22T08:27:47.135Z,5.65
2023-03-22T08:29:49.733Z,7.00
2023-03-22T08:31:52.822Z,5.82
2023-03-22T08:33:58.408Z,4.82
2023-03-22T08:36:08.082Z,7.38
2023-03-22T08:38:12.096Z,5.60
2023-03-22T08:40:15.182Z,5.60
2023-03-22T08:42:17.792Z,5.32
2023-03-22T08:44:20.371Z,2.88
2023-03-22T08:46:23.085Z,3.45
2023-03-22T08:48:28.993Z,6.60
2023-03-22T08:50:34.349Z,5.50
2023-03-22T08:52:37.034Z,4.03
2023-03-22T08:54:40.978Z,3.70
2023-03-22T08:56:43.531Z,5.72
2023-03-22T08:58:48.128Z,4.10
2023-03-22T09:00:51.226Z,4.97
2023-03-22T09:02:53.901Z,3.67
2023-03-22T09:04:56.493Z,3.75
2023-03-22T09:06:59.133Z,3.42
2023-03-22T09:09:01.899Z,3.25
2023-03-22T09:11:08.895Z,4.68
2023-03-22T09:13:13.350Z,6.25
2023-03-22T09:15:16.164Z,3.63
2023-03-22T09:17:21.243Z,7.32
2023-03-22T09:19:24.581Z,3.15
2023-03-22T09:21:27.171Z,5.45
2023-03-22T09:23:30.546Z,4.20
2023-03-22T09:25:33.201Z,9.52
2023-03-22T09:27:37.292Z,3.85
2023-03-22T09:29:39.903Z,4.50
2023-03-22T09:31:43.409Z,3.08
2023-03-22T09:33:46.255Z,4.18
2023-03-22T09:35:48.840Z,7.20
2023-03-22T09:37:53.267Z,1.80
2023-03-22T09:39:56.006Z,2.83
2023-03-22T09:42:01.961Z,3.47
2023-03-22T09:44:09.164Z,2.90
2023-03-22T09:46:15.865Z,5.40
2023-03-22T09:48:23.242Z,3.97
2023-03-22T09:50:28.854Z,5.68
2023-03-22T09:52:31.887Z,3.33
2023-03-22T09:54:36.009Z,1.17
2023-03-22T09:56:38.646Z,1.58
2023-03-22T09:58:47.195Z,4.43
2023-03-22T10:00:56.926Z,3.03
2023-03-22T10:03:06.261Z,2.08
2023-03-22T10:05:21.785Z,4.20
2023-03-22T10:07:30.162Z,6.10
2023-03-22T10:09:43.083Z,2.20
2023-03-22T10:11:47.959Z,1.60
2023-03-22T10:13:58.448Z,4.25
2023-03-22T10:16:04.473Z,1.60
2023-03-22T10:18:12.503Z,6.00
2023-03-22T10:20:29.678Z,2.42
2023-03-22T10:22:36.312Z,1.40
2023-03-22T10:24:42.671Z,1.60
2023-03-22T10:26:47.787Z,2.47
2023-03-22T10:28:59.369Z,3.13
2023-03-22T10:31:05.753Z,1.33
2023-03-22T10:33:14.888Z,5.18
2023-03-22T10:35:18.057Z,6.75
2023-03-22T10:37:24.821Z,2.60
2023-03-22T10:39:32.449Z,2.00
2023-03-22T10:41:35.591Z,2.95
2023-03-22T10:43:39.998Z,2.30
2023-03-22T10:45:44.108Z,3.40
2023-03-22T10:47:54.193Z,4.07
2023-03-22T10:49:58.334Z,2.22
2023-03-22T10:52:05.674Z,3.28
2023-03-22T10:54:14.409Z,3.20
2023-03-22T10:56:20.024Z,3.42
2023-03-22T10:58:27.123Z,2.00
2023-03-22T11:00:29.777Z,1.48
2023-03-22T11:02:33.645Z,5.18
2023-03-22T11:04:38.381Z,3.78
2023-03-22T11:06:49.855Z,2.47
2023-03-22T11:08:54.532Z,2.08
2023-03-22T11:11:00.265Z,1.38
2023-03-22T11:13:18.484Z,1.15
2023-03-22T11:15:27.889Z,2.75
2023-03-22T11:17:33.026Z,1.50
2023-03-22T11:19:39.156Z,3.47
2023-03-22T11:21:43.290Z,1.85
2023-03-22T11:23:55.009Z,1.60
2023-03-22T11:26:01.028Z,2.15
2023-03-22T11:28:10.961Z,2.45
2023-03-22T11:30:21.062Z,1.30
2023-03-22T11:32:28.869Z,1.55
2023-03-22T11:34:32.174Z,1.52
2023-03-22T11:36:45.296Z,3.47
2023-03-22T11:38:48.943Z,2.65
2023-03-22T11:40:56.584Z,1.88
2023-03-22T11:43:16.594Z,3.67
2023-03-22T11:45:25.167Z,3.03
2023-03-22T11:47:33.837Z,2.05
2023-03-22T11:49:41.544Z,3.08
2023-03-22T11:51:46.472Z,1.73
2023-03-22T11:53:49.906Z,3.20
2023-03-22T11:55:58.044Z,1.38
2023-03-22T11:58:00.614Z,2.95
2023-03-22T12:00:11.335Z,1.98
2023-03-22T12:02:21.070Z,2.17
2023-03-22T12:04:27.816Z,2.15
2023-03-22T12:06:34.437Z,5.30
2023-03-22T12:08:43.935Z,3.15
2023-03-22T12:10:52.597Z,2.13
2023-03-22T12:12:59.493Z,1.83
2023-03-22T12:15:05.840Z,3.60
2023-03-22T12:17:16.724Z,1.92
2023-03-22T12:19:29.468Z,2.57
2023-03-22T12:21:33.759Z,3.42
2023-03-22T12:23:36.909Z,1.77
2023-03-22T12:25:43.625Z,1.95
2023-03-22T12:27:49.286Z,1.17
2023-03-22T12:29:57.676Z,1.90
2023-03-22T12:32:07.121Z,1.88
2023-03-22T12:34:15.799Z,2.97
2023-03-22T12:36:21.693Z,1.52
2023-03-22T12:38:34.044Z,1.63
2023-03-22T12:40:40.635Z,1.52
2023-03-22T12:42:56.633Z,1.85
2023-03-22T12:45:06.013Z,2.70
2023-03-22T12:47:18.924Z,1.10
2023-03-22T12:49:28.140Z,1.60
2023-03-22T12:51:30.715Z,1.58
2023-03-22T12:53:42.280Z,1.38
2023-03-22T12:55:46.875Z,3.20
2023-03-22T12:57:54.389Z,1.95
2023-03-22T13:00:00.381Z,3.70
2023-03-22T13:02:12.723Z,0.93
2023-03-22T13:04:32.261Z,0.80
2023-03-22T13:06:56.758Z,3.83
2023-03-22T13:09:15.639Z,1.38
2023-03-22T13:11:25.232Z,2.13
2023-03-22T13:13:42.285Z,1.40
2023-03-22T13:16:00.690Z,0.98
2023-03-22T13:18:03.394Z,2.22
2023-03-22T13:20:31.178Z,1.38
2023-03-22T13:23:05.282Z,1.95
2023-03-22T13:25:17.088Z,2.60
2023-03-22T13:27:20.102Z,2.92
2023-03-22T13:29:26.396Z,2.33
2023-03-22T13:31:38.458Z,4.15
2023-03-22T13:33:44.739Z,3.67
2023-03-22T13:35:51.255Z,7.28
2023-03-22T13:37:54.831Z,2.67
2023-03-22T13:40:02.006Z,0.93
2023-03-22T13:42:10.334Z,2.17
2023-03-22T13:44:30.465Z,1.25
2023-03-22T13:46:50.630Z,1.85
2023-03-22T13:49:00.337Z,0.88
2023-03-22T13:51:12.015Z,2.08
2023-03-22T13:53:21.425Z,3.22
2023-03-22T13:55:41.528Z,3.88
2023-03-22T13:57:58.869Z,1.50
2023-03-22T14:00:14.802Z,2.50
2023-03-22T14:02:26.106Z,1.23
2023-03-22T14:04:34.914Z,2.70
2023-03-22T14:06:46.081Z,1.92
2023-03-22T14:08:52.475Z,1.58
2023-03-22T14:11:01.090Z,2.50
2023-03-22T14:13:07.219Z,2.10
2023-03-22T14:15:17.464Z,3.53
2023-03-22T14:17:31.188Z,4.82
2023-03-22T14:19:35.844Z,0.98
2023-03-22T14:21:40.785Z,4.32
